createdAt,value
2023-01-05T00:00:43.993Z,9.90
2023-01-05T00:05:49.132Z,9.86
2023-01-05T00:11:10.580Z,9.84
2023-01-05T00:16:33.670Z,9.82
2023-01-05T00:21:56.435Z,9.81
2023-01-05T00:27:00.313Z,9.79
2023-01-05T00:32:04.107Z,9.77
2023-01-05T00:37:09.243Z,9.73
2023-01-05T00:42:13.016Z,9.73
2023-01-05T00:47:16.912Z,9.68
2023-01-05T00:52:22.178Z,9.60
2023-01-05T00:57:25.990Z,9.54
2023-01-05T01:02:30.672Z,9.48
2023-01-05T01:07:35.864Z,9.49
2023-01-05T01:12:44.630Z,9.39
2023-01-05T01:17:48.428Z,9.38
2023-01-05T01:22:53.491Z,9.31
2023-01-05T01:27:57.307Z,9.30
2023-01-05T01:33:01.452Z,9.32
2023-01-05T01:38:06.590Z,9.32
2023-01-05T01:43:14.855Z,9.40
2023-01-05T01:48:19.958Z,9.44
2023-01-05T01:53:28.965Z,9.47
2023-01-05T01:58:33.719Z,9.46
2023-01-05T02:03:38.811Z,9.48
2023-01-05T02:08:44.040Z,9.46
2023-01-05T02:14:03.084Z,9.52
2023-01-05T02:19:48.485Z,9.55
2023-01-05T02:25:13.103Z,9.58
2023-01-05T02:30:59.530Z,9.58
2023-01-05T02:36:13.203Z,9.63
2023-01-05T02:41:24.156Z,9.65
2023-01-05T02:46:31.864Z,9.69
2023-01-05T02:51:40.000Z,9.71
2023-01-05T02:56:51.162Z,9.77
2023-01-05T03:02:00.366Z,9.78
2023-01-05T03:07:07.051Z,9.83
2023-01-05T03:12:35.674Z,9.84
2023-01-05T03:17:45.342Z,9.87
2023-01-05T03:23:09.405Z,9.87
2023-01-05T03:28:36.625Z,9.84
2023-01-05T03:34:04.204Z,9.88
2023-01-05T03:39:10.103Z,9.87
2023-01-05T03:44:15.151Z,9.85
2023-01-05T03:49:21.511Z,9.85
2023-01-05T03:54:26.602Z,9.88
2023-01-05T03:59:30.495Z,9.85
2023-01-05T04:04:36.556Z,9.89
2023-01-05T04:09:42.065Z,9.89
2023-01-05T04:14:46.366Z,9.89
2023-01-05T04:19:51.543Z,9.85
2023-01-05T04:24:56.716Z,9.82
2023-01-05T04:30:00.568Z,9.83
2023-01-05T04:35:11.264Z,9.84
2023-01-05T04:40:16.048Z,9.83
2023-01-05T04:45:20.413Z,9.81
2023-01-05T04:50:27.523Z,9.88
2023-01-05T04:55:31.932Z,9.87
2023-01-05T05:00:36.060Z,9.89
2023-01-05T05:05:43.382Z,9.82
2023-01-05T05:10:49.046Z,9.86
2023-01-05T05:15:52.915Z,9.86
2023-01-05T05:20:58.126Z,9.86
2023-01-05T05:26:02.270Z,9.81
2023-01-05T05:31:06.408Z,9.83
2023-01-05T05:36:11.730Z,9.81
2023-01-05T05:41:15.508Z,9.82
2023-01-05T05:46:19.277Z,9.79
2023-01-05T05:51:24.791Z,9.77
2023-01-05T05:56:28.529Z,9.79
2023-01-05T06:01:32.436Z,9.77
2023-01-05T06:06:37.637Z,9.78
2023-01-05T06:11:41.357Z,9.79
2023-01-05T06:16:45.796Z,9.78
2023-01-05T06:21:51.110Z,9.79
2023-01-05T06:26:54.914Z,9.77
2023-01-05T06:31:58.797Z,9.82
2023-01-05T06:37:06.383Z,9.81
2023-01-05T06:42:10.187Z,9.81
2023-01-05T06:47:14.249Z,9.80
2023-01-05T06:52:19.381Z,9.80
2023-01-05T06:57:23.434Z,9.80
2023-01-05T07:02:27.220Z,9.76
2023-01-05T07:07:32.410Z,9.79
2023-01-05T07:12:36.241Z,9.78
2023-01-05T07:17:39.977Z,9.73
2023-01-05T07:22:45.092Z,9.77
2023-01-05T07:27:52.179Z,9.75
2023-01-05T07:32:59.494Z,9.73
2023-01-05T07:38:04.581Z,9.70
2023-01-05T07:43:08.519Z,9.74
2023-01-05T07:48:12.268Z,9.75
2023-01-05T07:53:17.357Z,9.70
2023-01-05T07:58:21.102Z,9.74
2023-01-05T08:03:25.287Z,9.71
2023-01-05T08:08:30.564Z,9.70
2023-01-05T08:13:51.870Z,9.70
2023-01-05T08:18:55.695Z,9.69
2023-01-05T08:24:01.111Z,9.72
2023-01-05T08:29:04.818Z,9.69
2023-01-05T08:34:08.608Z,9.74
2023-01-05T08:39:14.557Z,9.76
2023-01-05T08:44:18.838Z,9.74
2023-01-05T08:49:23.471Z,9.73
2023-01-05T08:54:28.944Z,9.71
2023-01-05T08:59:32.681Z,9.77
2023-01-05T09:04:36.604Z,9.80
2023-01-05T09:09:41.780Z,9.78
2023-01-05T09:14:45.619Z,9.90
2023-01-05T09:19:49.416Z,9.90
2023-01-05T09:24:54.564Z,9.93
2023-01-05T09:29:58.290Z,9.95
2023-01-05T09:35:02.062Z,9.93
2023-01-05T09:40:08.553Z,9.98
2023-01-05T09:45:15.617Z,10.01
2023-01-05T09:50:22.097Z,9.95
2023-01-05T09:55:31.553Z,10.03
2023-01-05T10:00:39.697Z,10.09
2023-01-05T10:05:46.639Z,10.19
2023-01-05T10:11:10.777Z,10.08
2023-01-05T10:16:18.500Z,10.21
2023-01-05T10:21:30.677Z,10.23
2023-01-05T10:27:23.113Z,10.21
2023-01-05T10:32:18.479Z,10.34
2023-01-05T10:37:40.890Z,10.35
2023-01-05T10:43:05.174Z,10.38
2023-01-05T10:48:14.998Z,10.45
2023-01-05T10:53:21.943Z,10.44
2023-01-05T10:58:29.799Z,10.44
2023-01-05T11:04:23.938Z,10.51
2023-01-05T11:09:21.855Z,10.34
2023-01-05T11:14:29.801Z,10.44
2023-01-05T11:19:37.744Z,10.40
2023-01-05T11:24:41.528Z,10.45
2023-01-05T11:29:46.682Z,10.48
2023-01-05T11:34:51.762Z,10.62
2023-01-05T11:39:57.643Z,10.74
2023-01-05T11:45:05.601Z,10.72
2023-01-05T11:50:21.413Z,10.78
2023-01-05T11:55:31.736Z,10.82
2023-01-05T12:00:54.077Z,10.87
2023-01-05T12:06:01.625Z,10.82
2023-01-05T12:11:15.081Z,10.85
2023-01-05T12:16:41.720Z,11.16
2023-01-05T12:22:02.155Z,11.17
2023-01-05T12:27:17.924Z,11.36
2023-01-05T12:38:23.948Z,11.41
2023-01-05T12:43:40.952Z,11.35
2023-01-05T12:48:49.014Z,11.38
2023-01-05T12:53:58.286Z,11.26
2023-01-05T12:59:12.189Z,11.39
2023-01-05T13:04:46.293Z,11.13
2023-01-05T13:10:02.645Z,11.06
2023-01-05T13:15:17.827Z,11.19
2023-01-05T13:20:31.513Z,11.31
2023-01-05T13:25:43.140Z,11.28
2023-01-05T13:30:58.723Z,11.16
2023-01-05T13:36:21.556Z,11.11
2023-01-05T13:41:35.966Z,11.16
2023-01-05T13:46:53.555Z,11.18
2023-01-05T13:52:00.178Z,11.13
2023-01-05T13:57:09.194Z,11.12
2023-01-05T14:02:30.089Z,11.07
2023-01-05T14:07:41.661Z,10.91
2023-01-05T14:12:48.356Z,10.94
2023-01-05T14:17:53.853Z,10.93
2023-01-05T14:22:59.608Z,11.04
2023-01-05T14:28:21.939Z,10.89
2023-01-05T14:33:25.772Z,10.78
2023-01-05T14:38:31.430Z,10.89
2023-01-05T14:43:36.658Z,10.83
2023-01-05T14:48:42.826Z,10.81
2023-01-05T14:53:50.008Z,10.58
2023-01-05T14:59:07.507Z,10.53
2023-01-05T15:04:16.507Z,10.47
2023-01-05T15:09:38.246Z,10.53
2023-01-05T15:15:16.964Z,10.44
2023-01-05T15:20:52.108Z,10.36
2023-01-05T15:26:26.133Z,10.26
2023-01-05T15:31:36.962Z,10.13
2023-01-05T15:36:47.574Z,10.21
2023-01-05T15:41:52.429Z,10.03
2023-01-05T15:46:57.702Z,10.04
2023-01-05T15:52:02.116Z,10.11
2023-01-05T15:57:21.119Z,10.05
2023-01-05T16:02:28.278Z,9.95
2023-01-05T16:07:32.551Z,9.99
2023-01-05T16:12:37.209Z,9.97
2023-01-05T16:17:42.712Z,9.97
2023-01-05T16:22:52.746Z,9.97
2023-01-05T16:28:03.444Z,9.95
2023-01-05T16:33:23.571Z,9.95
2023-01-05T16:38:28.646Z,9.97
2023-01-05T16:43:35.417Z,9.98
2023-01-05T16:48:49.755Z,10.03
2023-01-05T16:53:56.856Z,10.07
2023-01-05T16:59:01.272Z,10.06
2023-01-05T17:04:13.512Z,10.07
2023-01-05T17:09:21.534Z,10.12
2023-01-05T17:14:27.364Z,10.13
2023-01-05T17:19:35.887Z,10.13
2023-01-05T17:24:40.210Z,10.17
2023-01-05T17:29:44.004Z,10.26
2023-01-05T17:34:49.201Z,10.31
2023-01-05T17:39:52.970Z,10.30
2023-01-05T17:44:56.822Z,10.33
2023-01-05T17:50:01.968Z,10.31
2023-01-05T17:55:06.495Z,10.31
2023-01-05T18:00:13.325Z,10.32
2023-01-05T18:05:19.668Z,10.33
2023-01-05T18:10:26.896Z,10.38
2023-01-05T18:15:32.833Z,10.35
2023-01-05T18:20:40.312Z,10.36
2023-01-05T18:25:44.162Z,10.39
2023-01-05T18:30:48.412Z,10.37
2023-01-05T18:40:58.782Z,10.43
2023-01-05T18:46:03.527Z,10.39
2023-01-05T18:51:09.627Z,10.39
2023-01-05T18:56:14.910Z,10.39
2023-01-05T19:01:20.409Z,10.37
2023-01-05T19:06:26.730Z,10.37
2023-01-05T19:11:30.731Z,10.39
2023-01-05T19:16:36.341Z,10.35
2023-01-05T19:21:43.041Z,10.38
2023-01-05T19:26:48.819Z,10.25
2023-01-05T19:31:52.591Z,10.17
2023-01-05T19:36:57.707Z,10.03
2023-01-05T19:42:01.511Z,10.08
2023-01-05T19:47:05.355Z,10.04
2023-01-05T19:52:10.636Z,9.94
2023-01-05T19:57:14.708Z,9.99
2023-01-05T20:02:18.578Z,9.88
2023-01-05T20:07:23.809Z,9.93
2023-01-05T20:12:27.711Z,9.98
2023-01-05T20:17:33.524Z,9.95
2023-01-05T20:22:38.766Z,9.86
2023-01-05T20:27:42.621Z,9.83
2023-01-05T20:32:46.388Z,9.74
2023-01-05T20:37:51.510Z,9.68
2023-01-05T20:42:55.268Z,9.65
2023-01-05T20:47:59.099Z,9.64
2023-01-05T20:53:04.213Z,9.64
2023-01-05T20:58:07.998Z,9.69
2023-01-05T21:03:11.823Z,9.72
2023-01-05T21:08:17.052Z,9.78
2023-01-05T21:13:31.292Z,9.82
2023-01-05T21:18:36.682Z,9.90
2023-01-05T21:23:41.918Z,9.94
2023-01-05T21:28:46.617Z,9.99
2023-01-05T21:33:50.943Z,9.94
2023-01-05T21:39:00.935Z,9.94
2023-01-05T21:44:08.192Z,9.92
2023-01-05T21:49:13.013Z,9.94
2023-01-05T21:54:35.893Z,9.99
2023-01-05T21:59:40.010Z,10.00
2023-01-05T22:04:44.631Z,9.99
2023-01-05T22:09:49.835Z,9.92
2023-01-05T22:14:53.789Z,9.99
2023-01-05T22:19:57.714Z,10.05
2023-01-05T22:25:02.861Z,10.05
2023-01-05T22:30:07.987Z,9.99
2023-01-05T22:35:11.745Z,10.04
2023-01-05T22:40:17.369Z,9.97
2023-01-05T22:45:21.167Z,10.01
2023-01-05T22:50:24.928Z,9.95
2023-01-05T22:55:30.055Z,9.95
2023-01-05T23:00:33.813Z,9.97
2023-01-05T23:05:39.311Z,9.86
2023-01-05T23:10:44.421Z,9.94
2023-01-05T23:15:54.437Z,9.86
2023-01-05T23:21:00.711Z,9.86
2023-01-05T23:26:10.172Z,9.81
2023-01-05T23:31:16.204Z,9.84
2023-01-05T23:36:21.483Z,9.83
2023-01-05T23:41:26.552Z,9.88
2023-01-05T23:46:30.321Z,9.83
2023-01-05T23:51:34.187Z,9.81
2023-01-05T23:56:39.383Z,9.75
